Time;durP1;ratioP1;P1;durP2;ratioP2;P2;SDS_P1;SDS_P2;PMS_P1;PMS_P2;Temp;Humidity;BMP_temperature;BMP_pressure;BME280_temperature;BME280_humidity;BME280_pressure;Samples;Min_cycle;Max_cycle;Signal;HPM_P1;HPM_P2
2021/12/05 00:24:33;;;;;;;21.35;19.10;;;;;;;5.59;75.95;100088.47;5030751;28;20478;-81
2021/12/05 00:27:14;;;;;;;20.95;18.75;;;;;;;5.46;76.25;100074.53;5013408;28;20124;-85
2021/12/05 00:29:52;;;;;;;21.40;19.25;;;;;;;5.23;76.85;100024.47;5014246;28;20060;-83
2021/12/05 00:46:39;;;;;;;24.67;21.02;;;;;;;5.55;78.35;100073.84;5029537;28;20045;-84
2021/12/05 00:57:31;;;;;;;24.77;21.73;;;;;;;5.43;79.74;100038.75;5013642;28;20081;-83
2021/12/05 01:16:25;;;;;;;23.92;21.50;;;;;;;5.42;80.89;100044.16;5028057;28;20045;-84
2021/12/05 01:18:52;;;;;;;23.23;20.70;;;;;;;5.07;80.99;99997.66;5028542;28;20050;-84
2021/12/05 01:21:22;;;;;;;23.73;21.25;;;;;;;5.30;81.49;100028.31;5027276;28;20143;-83
2021/12/05 01:24:01;;;;;;;21.92;19.52;;;;;;;5.24;81.26;100014.78;5010779;28;20099;-83
2021/12/05 01:27:18;;;;;;;21.90;19.60;;;;;;;5.33;81.45;100024.63;5028535;28;20065;-82
2021/12/05 01:51:03;;;;;;;19.75;17.73;;;;;;;5.53;80.72;100017.81;5039918;28;20586;-83
2021/12/05 02:10:43;;;;;;;20.52;17.45;;;;;;;5.34;80.42;99944.72;5027118;28;20442;-83
2021/12/05 02:29:37;;;;;;;22.65;19.45;;;;;;;4.20;81.49;99802.63;5026724;28;20268;-84
2021/12/05 02:35:01;;;;;;;22.88;20.02;;;;;;;5.33;81.95;99972.81;5027584;28;20144;-83
2021/12/05 02:42:39;;;;;;;22.88;20.30;;;;;;;5.24;82.24;99931.44;5028124;28;20053;-84
2021/12/05 02:45:08;;;;;;;26.53;22.07;;;;;;;5.42;82.82;99958.13;5009246;28;20075;-84
2021/12/05 02:47:35;;;;;;;23.80;21.27;;;;;;;4.98;82.53;99893.97;5009717;28;20302;-85
2021/12/05 02:50:07;;;;;;;26.52;20.92;;;;;;;5.43;82.14;99951.88;5026954;28;20069;-84
2021/12/05 02:52:38;;;;;;;23.83;21.42;;;;;;;5.41;81.88;99947.69;5027485;28;20260;-83
2021/12/05 02:55:29;;;;;;;29.30;21.80;;;;;;;5.41;82.30;99938.00;5028219;28;20045;-85
2021/12/05 02:58:02;;;;;;;23.38;20.60;;;;;;;5.41;82.15;99958.22;5028233;28;20374;-85
2021/12/05 03:00:42;;;;;;;23.42;20.95;;;;;;;4.86;82.01;99879.97;5010749;28;20133;-83
2021/12/05 03:03:17;;;;;;;23.50;21.00;;;;;;;5.21;82.30;99942.19;5027163;28;20068;-85
2021/12/05 03:05:48;;;;;;;23.75;20.70;;;;;;;5.27;82.36;99962.78;5026645;28;20057;-84
2021/12/05 03:08:18;;;;;;;23.23;20.83;;;;;;;5.01;82.86;99930.56;5009208;28;20140;-84
2021/12/05 03:10:47;;;;;;;29.38;22.50;;;;;;;3.87;82.51;99745.59;5026442;28;20052;-84
2021/12/05 03:13:15;;;;;;;26.80;21.92;;;;;;;5.12;82.89;99942.88;5026418;28;20048;-83
2021/12/05 03:15:41;;;;;;;26.13;23.30;;;;;;;5.10;83.11;99934.28;5008941;28;20132;-84
2021/12/05 03:18:08;;;;;;;25.70;22.83;;;;;;;3.87;82.27;99721.97;5008766;28;20495;-83
2021/12/05 03:20:35;;;;;;;28.30;23.15;;;;;;;5.20;82.79;99942.31;5008270;28;20585;-84
2021/12/05 03:23:03;;;;;;;27.63;22.00;;;;;;;5.15;82.70;99947.94;5009312;28;20045;-83
2021/12/05 03:25:30;;;;;;;25.80;21.57;;;;;;;5.18;82.39;99954.75;5026614;28;20052;-83
2021/12/05 03:27:57;;;;;;;30.35;23.27;;;;;;;5.09;83.25;99940.50;5009107;28;20530;-85
2021/12/05 03:30:26;;;;;;;26.77;23.50;;;;;;;5.25;82.91;99946.25;5009757;28;20057;-82
2021/12/05 03:32:55;;;;;;;25.73;22.95;;;;;;;4.23;83.12;99774.34;5016154;28;20071;-84
2021/12/05 03:35:25;;;;;;;26.03;22.00;;;;;;;5.20;83.17;99944.94;5016631;28;20041;-82
2021/12/05 03:37:53;;;;;;;32.67;23.40;;;;;;;4.73;82.95;99858.16;5028422;28;20050;-83
2021/12/05 03:40:24;;;;;;;27.35;24.05;;;;;;;4.62;82.92;99829.25;5029169;28;20045;-83
2021/12/05 03:42:53;;;;;;;29.50;24.55;;;;;;;5.08;82.66;99915.97;5013130;28;20140;-83
2021/12/05 03:45:26;;;;;;;31.33;24.42;;;;;;;4.80;82.91;99875.16;5012860;28;20375;-84
2021/12/05 03:47:56;;;;;;;29.83;24.08;;;;;;;5.21;82.24;99934.28;5013298;28;20048;-83
2021/12/05 03:50:24;;;;;;;27.05;23.83;;;;;;;4.85;82.90;99883.53;5015776;28;20057;-84
2021/12/05 03:52:51;;;;;;;30.42;26.95;;;;;;;4.52;82.66;99844.88;5014660;28;20462;-82
2021/12/05 03:55:19;;;;;;;29.77;25.17;;;;;;;5.14;82.34;99956.75;5030405;28;20061;-84
2021/12/05 03:57:48;;;;;;;27.38;24.35;;;;;;;5.19;83.39;99967.75;5013176;28;20049;-87
2021/12/05 04:00:21;;;;;;;29.58;25.55;;;;;;;5.12;83.42;99969.19;5012797;28;20055;-85
2021/12/05 04:02:49;;;;;;;29.80;24.37;;;;;;;4.99;83.14;99955.31;5012601;28;20057;-82
2021/12/05 04:05:18;;;;;;;30.90;26.63;;;;;;;5.12;83.08;99970.06;5012377;28;20075;-83
2021/12/05 04:07:45;;;;;;;29.38;24.85;;;;;;;4.87;82.95;99926.34;5012405;28;20136;-84
2021/12/05 04:10:13;;;;;;;28.30;23.98;;;;;;;5.08;82.44;99941.47;5012090;28;20553;-82
2021/12/05 04:12:40;;;;;;;28.10;24.52;;;;;;;4.78;83.21;99892.88;5011973;28;20140;-85
2021/12/05 04:15:10;;;;;;;28.47;23.60;;;;;;;5.14;83.19;99940.97;5012205;28;20130;-85
2021/12/05 04:17:39;;;;;;;26.42;22.50;;;;;;;4.62;83.07;99845.03;5012705;28;20046;-84
2021/12/05 04:20:10;;;;;;;30.13;24.00;;;;;;;5.17;83.04;99932.00;5011935;28;20454;-84
2021/12/05 04:22:37;;;;;;;27.95;23.75;;;;;;;5.18;83.04;99910.00;5012393;28;20080;-84
2021/12/05 04:25:08;;;;;;;27.80;23.05;;;;;;;4.67;83.56;99838.44;5012033;28;20055;-85
2021/12/05 04:27:40;;;;;;;30.80;25.45;;;;;;;5.13;83.06;99913.00;5012173;28;20160;-85
2021/12/05 04:30:10;;;;;;;27.77;24.00;;;;;;;4.89;83.23;99874.47;5012158;28;20053;-85
2021/12/05 04:32:37;;;;;;;29.75;23.73;;;;;;;5.19;83.42;99928.28;5011848;28;20128;-84
2021/12/05 04:35:04;;;;;;;29.02;23.85;;;;;;;3.86;82.98;99694.88;5011859;28;20610;-83
2021/12/05 04:37:32;;;;;;;28.58;24.80;;;;;;;5.41;83.59;99931.91;5029554;28;20088;-84
2021/12/05 04:39:58;;;;;;;29.75;25.02;;;;;;;4.63;83.31;99809.88;5029477;28;20049;-84
2021/12/05 04:42:25;;;;;;;29.55;25.90;;;;;;;4.79;82.32;99834.03;5011688;28;20100;-84
2021/12/05 04:44:52;;;;;;;33.75;26.52;;;;;;;5.38;82.49;99922.44;5029380;28;20491;-85
2021/12/05 04:47:19;;;;;;;32.10;26.13;;;;;;;5.18;82.00;99921.38;5029459;28;20148;-84
2021/12/05 04:49:46;;;;;;;30.88;26.35;;;;;;;5.28;82.04;99946.00;5029356;28;20137;-85
2021/12/05 04:52:14;;;;;;;37.00;26.70;;;;;;;5.21;82.64;99941.34;5029004;28;20563;-85
2021/12/05 04:54:41;;;;;;;34.35;27.48;;;;;;;5.27;82.65;99952.25;5029686;28;20463;-85
2021/12/05 04:57:16;;;;;;;34.67;27.83;;;;;;;5.10;82.62;99918.50;5012615;28;20080;-84
2021/12/05 05:00:03;;;;;;;30.65;25.92;;;;;;;5.31;82.73;99972.09;5029543;28;20056;-84
2021/12/05 05:02:35;;;;;;;33.13;27.10;;;;;;;4.60;82.61;99841.66;5029614;28;20060;-83
2021/12/05 05:05:02;;;;;;;32.05;27.48;;;;;;;5.03;81.99;99906.78;5012013;28;20140;-85
2021/12/05 05:07:29;;;;;;;37.88;28.50;;;;;;;5.21;82.17;99926.38;5029535;28;20283;-82
2021/12/05 05:09:59;;;;;;;35.78;29.45;;;;;;;5.34;82.02;99937.66;5028926;28;20059;-85
2021/12/05 05:12:26;;;;;;;38.10;28.42;;;;;;;5.35;82.02;99931.41;5028481;28;20053;-84
2021/12/05 05:14:54;;;;;;;35.30;30.40;;;;;;;4.86;82.71;99847.56;5010863;28;20137;-86
2021/12/05 05:17:21;;;;;;;36.50;29.52;;;;;;;5.41;82.21;99937.16;5011101;28;20389;-84
2021/12/05 05:19:52;;;;;;;35.60;29.83;;;;;;;5.19;81.72;99899.34;5011295;28;20447;-86
2021/12/05 05:22:49;;;;;;;36.30;29.65;;;;;;;4.64;81.94;99812.41;5028690;28;20049;-83
2021/12/05 05:26:06;;;;;;;36.50;29.77;;;;;;;5.45;81.22;99935.97;5027723;28;20167;-85
2021/12/05 05:46:50;;;;;;;29.90;25.73;;;;;;;5.21;80.93;99936.91;5028421;28;20060;-84
2021/12/05 05:49:22;;;;;;;31.83;27.27;;;;;;;5.40;81.52;99973.19;5033450;28;20053;-85
2021/12/05 05:51:49;;;;;;;30.55;27.25;;;;;;;5.41;81.67;99976.66;5017228;28;20046;-84
2021/12/05 05:54:18;;;;;;;34.70;27.90;;;;;;;5.29;81.72;99960.00;5012277;28;20490;-85
2021/12/05 05:56:45;;;;;;;32.35;28.95;;;;;;;5.22;81.94;99946.50;5028127;28;20053;-83
2021/12/05 05:59:24;;;;;;;34.28;27.95;;;;;;;5.45;81.73;99965.75;5010609;28;20128;-85
2021/12/05 06:04:17;;;;;;;33.00;27.55;;;;;;;4.81;81.54;99884.75;5027278;28;20049;-83
2021/12/05 06:06:49;;;;;;;31.98;27.65;;;;;;;5.29;82.28;99967.91;5011415;28;20049;-84
2021/12/05 06:09:16;;;;;;;30.05;25.42;;;;;;;5.32;82.24;99976.41;5010747;28;20069;-85
2021/12/05 06:11:42;;;;;;;35.28;26.13;;;;;;;5.30;82.66;99965.16;5011055;28;20155;-83
2021/12/05 06:14:09;;;;;;;29.85;25.17;;;;;;;4.71;82.76;99881.13;5011254;28;20145;-84
2021/12/05 06:16:36;;;;;;;26.00;23.20;;;;;;;5.29;82.51;99960.88;5028032;28;20124;-84
2021/12/05 06:19:03;;;;;;;26.88;23.77;;;;;;;5.22;82.21;99954.41;5027625;28;20480;-86
2021/12/05 06:21:29;;;;;;;24.50;22.10;;;;;;;5.18;81.57;99952.94;5027830;28;20049;-84
2021/12/05 06:23:56;;;;;;;23.98;21.48;;;;;;;4.06;81.63;99780.88;5010872;28;20111;-81
2021/12/05 06:26:23;;;;;;;24.80;22.30;;;;;;;4.85;82.16;99920.34;5010081;28;20525;-86
2021/12/05 06:29:07;;;;;;;25.38;22.77;;;;;;;4.75;82.78;99919.38;5010418;28;20053;-84
2021/12/05 06:47:55;;;;;;;22.90;20.50;;;;;;;5.11;83.15;99968.34;5027461;28;20470;-84
2021/12/05 06:50:22;;;;;;;24.17;21.70;;;;;;;5.08;83.62;99978.28;5009850;28;20332;-82
2021/12/05 06:52:48;;;;;;;23.55;21.15;;;;;;;4.59;83.68;99876.81;5010216;28;20129;-82
2021/12/05 06:55:16;;;;;;;23.70;20.05;;;;;;;5.13;82.90;99970.88;5009508;28;20454;-84
2021/12/05 06:57:44;;;;;;;24.67;22.10;;;;;;;4.60;82.51;99902.13;5010210;28;20056;-85
2021/12/05 07:00:18;;;;;;;25.33;22.73;;;;;;;4.80;82.63;99958.47;5009356;28;20055;-85
2021/12/05 07:02:45;;;;;;;25.23;22.55;;;;;;;5.07;83.17;100013.44;5009706;28;20057;-82
2021/12/05 07:05:32;;;;;;;27.52;24.58;;;;;;;4.76;83.40;99972.81;5009885;28;20313;-84
2021/12/05 07:07:59;;;;;;;27.03;24.13;;;;;;;5.09;83.14;99995.75;5027250;28;20073;-84
2021/12/05 07:10:26;;;;;;;30.23;25.77;;;;;;;5.16;82.86;100022.44;5009950;28;20133;-82
2021/12/05 07:16:05;;;;;;;29.05;25.98;;;;;;;5.08;82.45;100009.88;4974593;28;20210;-82
2021/12/05 07:18:37;;;;;;;33.45;28.45;;;;;;;5.06;82.08;100009.97;5009722;28;20396;-80
2021/12/05 07:21:23;;;;;;;30.25;27.02;;;;;;;5.02;82.10;100000.63;5026305;28;20072;-86
2021/12/05 07:26:34;;;;;;;32.30;27.98;;;;;;;5.31;83.29;100016.84;5025184;28;20047;-83
2021/12/05 07:42:46;;;;;;;35.63;30.75;;;;;;;5.21;82.01;99986.09;5026908;28;20140;-81
2021/12/05 07:45:20;;;;;;;32.72;29.13;;;;;;;5.23;81.82;99982.38;5008754;28;20045;-82
2021/12/05 07:47:51;;;;;;;33.95;29.75;;;;;;;5.27;82.08;99986.47;5009131;28;20065;-85
2021/12/05 07:50:22;;;;;;;34.47;29.27;;;;;;;5.22;81.92;99979.84;5020030;28;20530;-85
2021/12/05 07:52:52;;;;;;;32.33;27.80;;;;;;;5.24;82.31;99983.22;5009488;28;20411;-84
2021/12/05 07:55:28;;;;;;;33.25;28.42;;;;;;;5.31;82.38;99973.88;5009375;28;20046;-85
2021/12/05 07:58:51;;;;;;;32.85;27.40;;;;;;;4.32;81.23;99804.34;5009279;28;20081;-84
2021/12/05 08:01:04;;;;;;;31.27;27.83;;;;;;;5.03;81.22;99917.28;5016857;28;20080;-84
2021/12/05 08:14:46;;;;;;;32.00;25.55;;;;;;;5.43;80.63;99957.16;5025808;28;20581;-82
2021/12/05 08:17:17;;;;;;;31.33;27.15;;;;;;;4.79;80.69;99849.00;5025434;28;20154;-82
2021/12/05 08:19:47;;;;;;;30.35;26.17;;;;;;;4.52;80.90;99807.25;5007890;28;20049;-84
2021/12/05 08:22:15;;;;;;;34.72;27.40;;;;;;;5.35;80.76;99934.06;5024090;28;20563;-86
2021/12/05 08:24:46;;;;;;;34.13;27.77;;;;;;;5.30;80.81;99933.56;5007466;28;20077;-81
2021/12/05 08:27:15;;;;;;;34.47;28.23;;;;;;;5.32;81.34;99936.94;5010167;28;20549;-82
2021/12/05 08:29:47;;;;;;;33.17;27.27;;;;;;;5.58;80.74;99968.28;5029274;28;20145;-81
2021/12/05 10:07:17;;;;;;;14.57;12.02;;;;;;;7.96;73.12;99947.69;5027181;28;20080;-84
2021/12/05 10:12:50;;;;;;;13.25;10.30;;;;;;;7.98;71.71;99953.69;5028124;28;20053;-83
2021/12/05 10:35:45;;;;;;;12.38;9.77;;;;;;;8.11;72.76;99952.47;5027257;28;20046;-82
2021/12/05 10:38:15;;;;;;;16.50;12.60;;;;;;;8.09;72.67;99943.84;5030649;28;20045;-82
2021/12/05 10:41:46;;;;;;;17.80;14.15;;;;;;;8.06;71.74;99943.28;5009459;28;20096;-80
2021/12/05 10:43:44;;;;;;;18.98;15.65;;;;;;;7.98;72.96;99945.75;5016181;28;20049;-83
2021/12/05 10:46:14;;;;;;;22.17;17.30;;;;;;;8.03;72.65;99927.66;5009095;28;20518;-82
2021/12/05 10:48:54;;;;;;;26.85;19.35;;;;;;;8.03;72.69;99931.16;5008263;28;20060;-82
2021/12/05 10:51:25;;;;;;;25.00;19.98;;;;;;;7.95;71.85;99887.88;5009053;28;20077;-85
2021/12/05 10:53:53;;;;;;;22.58;18.75;;;;;;;8.20;72.13;99915.59;5010914;28;20297;-83
2021/12/05 10:56:20;;;;;;;24.70;19.90;;;;;;;8.27;71.81;99904.31;5009078;28;20124;-84
2021/12/05 10:59:00;;;;;;;25.35;19.98;;;;;;;8.41;71.23;99905.75;5026533;28;20137;-84
2021/12/05 11:01:34;;;;;;;24.70;20.13;;;;;;;8.26;70.89;99855.06;5008481;28;20499;-84
2021/12/05 11:04:12;;;;;;;23.05;19.33;;;;;;;8.40;70.28;99892.66;5006391;28;20483;-83
2021/12/05 11:06:50;;;;;;;24.48;19.30;;;;;;;8.29;70.84;99878.56;5007714;28;20471;-83
2021/12/05 11:09:24;;;;;;;26.65;19.83;;;;;;;8.23;71.20;99879.16;5009757;28;20053;-83
2021/12/05 11:11:57;;;;;;;21.60;18.08;;;;;;;8.09;71.59;99863.69;5026590;28;20088;-83
2021/12/05 11:14:28;;;;;;;22.00;16.83;;;;;;;8.10;70.77;99865.34;5027029;28;20083;-81
2021/12/05 11:16:59;;;;;;;18.70;16.75;;;;;;;7.75;71.57;99816.50;5009946;28;20108;-83
2021/12/05 11:19:49;;;;;;;24.08;19.00;;;;;;;8.10;71.37;99875.94;5027259;28;20061;-81
2021/12/05 11:22:21;;;;;;;21.13;17.10;;;;;;;8.11;71.86;99878.44;5008907;28;20046;-81
2021/12/05 11:24:57;;;;;;;19.60;16.98;;;;;;;7.98;71.56;99861.16;5008912;28;20092;-81
2021/12/05 11:27:30;;;;;;;21.02;16.63;;;;;;;7.28;71.27;99747.63;4989197;28;20053;-82
2021/12/05 11:30:00;;;;;;;;;;;;;;;7.97;71.68;99868.28;4990234;28;20054;-81
2021/12/05 11:32:37;;;;;;;22.70;17.25;;;;;;;7.80;71.61;99824.84;5022535;28;19931;-81
2021/12/05 11:35:19;;;;;;;20.67;17.52;;;;;;;7.99;71.83;99860.22;4989914;28;20050;-82
2021/12/05 11:37:53;;;;;;;24.15;18.75;;;;;;;7.80;72.10;99824.84;4990025;28;20054;-81
2021/12/05 11:40:52;;;;;;;20.90;16.77;;;;;;;7.99;72.51;99847.00;4994584;28;20042;-80
2021/12/05 11:43:32;;;;;;;19.17;16.67;;;;;;;6.29;71.74;99565.50;4989694;28;20567;-82
2021/12/05 11:46:35;;;;;;;19.33;17.25;;;;;;;8.06;73.12;99843.66;4988893;28;20144;-81
2021/12/05 11:49:06;;;;;;;21.13;16.90;;;;;;;7.78;71.69;99799.53;4984322;28;20053;-84
2021/12/05 11:51:44;;;;;;;19.48;17.38;;;;;;;8.10;72.34;99850.31;5006384;28;20062;-81
2021/12/05 11:54:15;;;;;;;20.67;18.45;;;;;;;7.33;71.96;99729.59;4988882;28;20058;-83
2021/12/05 11:56:56;;;;;;;21.58;17.92;;;;;;;8.12;72.27;99847.53;5006240;28;20141;-82
2021/12/05 11:59:38;;;;;;;18.88;16.85;;;;;;;7.52;72.13;99741.13;4989401;28;20065;-81
2021/12/05 12:02:24;;;;;;;23.63;18.80;;;;;;;8.17;72.15;99832.09;4996377;28;20146;-83
2021/12/05 12:05:09;;;;;;;21.23;18.13;;;;;;;7.89;71.97;99787.03;5014568;28;20133;-82
2021/12/05 12:07:54;;;;;;;19.85;17.35;;;;;;;8.19;72.65;99847.84;4992893;28;20351;-83
2021/12/05 12:10:26;;;;;;;22.00;19.65;;;;;;;7.70;72.60;99757.97;4992736;28;20373;-83
2021/12/05 12:12:56;;;;;;;24.08;19.95;;;;;;;8.24;72.43;99825.28;4992370;28;20639;-82
2021/12/05 12:15:24;;;;;;;20.55;18.38;;;;;;;7.95;71.76;99784.81;5008660;28;20681;-83
2021/12/05 12:17:55;;;;;;;22.42;17.67;;;;;;;8.25;71.25;99826.97;4992124;28;20375;-83
2021/12/05 12:20:25;;;;;;;20.90;18.70;;;;;;;8.25;72.05;99826.97;4992070;28;20432;-83
2021/12/05 12:22:54;;;;;;;20.55;18.17;;;;;;;8.01;71.95;99782.44;4993729;28;20054;-83
2021/12/05 12:25:26;;;;;;;22.13;19.75;;;;;;;7.01;71.90;99640.88;4996718;28;20049;-83
2021/12/05 12:27:53;;;;;;;24.38;19.77;;;;;;;7.73;70.71;99744.47;5029820;28;20443;-83
2021/12/05 12:30:25;;;;;;;20.75;18.65;;;;;;;8.07;70.96;99807.47;5030421;28;20049;-82
2021/12/05 12:33:36;;;;;;;23.95;20.17;;;;;;;7.86;70.84;99763.53;5012908;28;20410;-81
2021/12/05 12:36:04;;;;;;;21.75;19.42;;;;;;;8.12;70.93;99799.97;4986233;28;20080;-82
2021/12/05 12:38:31;;;;;;;22.23;19.98;;;;;;;8.25;71.35;99823.47;5012443;28;20064;-82
2021/12/05 12:41:13;;;;;;;24.08;21.10;;;;;;;8.22;70.88;99800.78;5011599;28;20332;-82
2021/12/05 12:43:52;;;;;;;23.63;21.23;;;;;;;8.43;70.50;99839.50;5029731;28;20519;-81
2021/12/05 12:46:40;;;;;;;24.10;20.92;;;;;;;6.90;70.31;99605.88;5012060;28;20506;-83
2021/12/05 12:49:16;;;;;;;19.35;16.80;;;;;;;8.50;69.88;99835.31;5011860;28;20050;-82
2021/12/05 12:51:52;;;;;;;20.95;18.40;;;;;;;7.88;69.60;99732.50;5011806;28;20045;-82
2021/12/05 12:54:27;;;;;;;19.58;17.60;;;;;;;8.46;69.46;99828.63;5011755;28;20060;-82
2021/12/05 12:57:09;;;;;;;20.50;18.17;;;;;;;8.29;69.16;99791.31;5029048;28;20141;-82
2021/12/05 12:59:38;;;;;;;;;;;;;;;8.51;69.07;99826.38;5030221;28;20072;-82
2021/12/05 13:02:28;;;;;;;19.85;16.27;;;;;;;8.45;68.43;99800.53;5029270;28;19927;-82
2021/12/05 13:05:24;;;;;;;20.20;18.13;;;;;;;7.45;68.03;99633.41;5012408;28;20076;-83
2021/12/05 13:10:43;;;;;;;17.02;15.32;;;;;;;8.27;67.26;99774.75;5029024;28;20487;-82
2021/12/05 13:13:25;;;;;;;18.08;16.17;;;;;;;8.37;68.88;99776.53;5011027;28;20176;-81
2021/12/05 13:15:59;;;;;;;19.33;16.02;;;;;;;8.65;67.81;99825.94;5011416;28;20419;-83
2021/12/05 13:18:35;;;;;;;15.93;14.23;;;;;;;8.39;66.17;99777.25;5011218;28;20056;-84
2021/12/05 13:21:13;;;;;;;19.33;15.88;;;;;;;8.21;67.14;99746.25;5011678;28;20475;-84
2021/12/05 13:23:46;;;;;;;15.18;13.32;;;;;;;7.71;64.26;99665.34;5011162;28;20053;-83
2021/12/05 13:26:16;;;;;;;15.30;13.57;;;;;;;8.72;65.03;99828.88;5010665;28;20056;-85
2021/12/05 13:28:50;;;;;;;14.05;11.80;;;;;;;7.14;63.99;99550.06;5029060;28;20054;-84
2021/12/05 13:31:41;;;;;;;14.40;11.43;;;;;;;8.77;61.39;99821.31;5011130;28;20183;-85
2021/12/05 13:34:34;;;;;;;11.77;10.63;;;;;;;8.65;60.61;99810.06;5028579;28;20053;-85
2021/12/05 13:37:06;;;;;;;;;;;;;;;8.71;61.06;99814.81;5012367;28;20053;-84
2021/12/05 13:39:33;;;;;;;12.90;11.57;;;;;;;8.66;60.23;99811.72;5028666;28;19964;-85
2021/12/05 13:42:02;;;;;;;14.57;12.80;;;;;;;8.18;60.62;99743.88;5010846;28;20053;-84
2021/12/05 13:45:00;;;;;;;14.98;11.40;;;;;;;8.63;60.24;99814.66;5028248;28;20068;-84
2021/12/05 13:47:37;;;;;;;13.77;12.35;;;;;;;8.56;60.45;99798.53;5010792;28;20045;-83
2021/12/05 13:50:18;;;;;;;13.23;11.85;;;;;;;8.62;60.16;99806.88;5028147;28;20064;-84
2021/12/05 13:52:56;;;;;;;14.60;12.77;;;;;;;8.46;60.91;99791.59;5010160;28;20099;-84
2021/12/05 13:55:40;;;;;;;13.98;12.60;;;;;;;8.33;60.92;99765.44;5010687;28;20357;-84
2021/12/05 13:58:45;;;;;;;15.65;14.07;;;;;;;8.56;61.83;99802.97;5011096;28;20212;-83
2021/12/05 14:01:18;;;;;;;15.23;12.90;;;;;;;8.58;62.00;99806.31;5028520;28;20105;-84
2021/12/05 14:04:00;;;;;;;13.80;12.43;;;;;;;8.58;61.43;99811.63;5013587;28;20569;-84
2021/12/05 14:06:43;;;;;;;14.85;13.35;;;;;;;8.56;61.60;99803.81;5016382;28;20531;-83
2021/12/05 14:09:20;;;;;;;16.52;14.93;;;;;;;8.46;61.84;99807.47;5013977;28;20089;-83
2021/12/05 14:11:52;;;;;;;15.95;14.27;;;;;;;8.58;61.33;99816.91;5009733;28;20501;-80
2021/12/05 14:14:27;;;;;;;16.42;14.55;;;;;;;8.58;61.86;99826.66;5009862;28;20325;-86
2021/12/05 14:16:55;;;;;;;16.25;14.55;;;;;;;8.09;61.65;99752.66;5009586;28;20396;-84
2021/12/05 14:19:27;;;;;;;18.05;15.30;;;;;;;8.58;62.64;99830.13;5011551;28;20076;-83
2021/12/05 14:21:56;;;;;;;16.15;14.30;;;;;;;8.51;62.04;99835.16;5010495;28;20053;-84
2021/12/05 14:24:29;;;;;;;16.02;14.30;;;;;;;7.79;61.79;99708.72;5010151;28;20061;-83
2021/12/05 14:27:01;;;;;;;16.52;14.80;;;;;;;7.54;61.92;99679.25;5011979;28;20053;-83
2021/12/05 14:29:29;;;;;;;15.00;13.30;;;;;;;7.88;62.10;99740.44;5010385;28;20489;-84
2021/12/05 14:31:59;;;;;;;18.50;14.52;;;;;;;8.55;61.89;99851.59;5011596;28;20053;-83
2021/12/05 14:34:26;;;;;;;17.08;15.30;;;;;;;7.42;62.08;99675.91;5013576;28;20277;-85
2021/12/05 14:36:59;;;;;;;18.35;14.48;;;;;;;7.82;62.56;99735.72;5028878;28;20459;-84
2021/12/05 14:39:28;;;;;;;19.35;14.98;;;;;;;8.48;62.16;99859.25;5012812;28;20462;-85
2021/12/05 14:42:18;;;;;;;15.38;13.88;;;;;;;8.44;62.41;99842.00;5026981;28;20458;-85
2021/12/05 14:44:52;;;;;;;16.98;15.27;;;;;;;8.40;62.16;99847.69;5009492;28;20049;-84
2021/12/05 14:47:22;;;;;;;18.40;15.27;;;;;;;8.30;62.35;99834.44;5009322;28;20080;-85
2021/12/05 14:49:55;;;;;;;18.15;16.20;;;;;;;8.28;63.34;99847.00;5008465;28;20132;-85
2021/12/05 14:52:29;;;;;;;17.55;15.05;;;;;;;8.23;63.17;99851.84;5026537;28;20681;-84
2021/12/05 14:54:56;;;;;;;17.13;15.38;;;;;;;8.17;63.34;99842.69;5009266;28;20672;-84
2021/12/05 14:57:32;;;;;;;18.55;16.70;;;;;;;7.69;64.03;99772.13;5008784;28;20081;-84
2021/12/05 15:00:07;;;;;;;18.15;16.35;;;;;;;7.69;63.66;99780.91;5026601;28;20056;-85
2021/12/05 15:02:35;;;;;;;16.83;15.05;;;;;;;8.11;64.45;99853.81;5026652;28;20056;-85
2021/12/05 15:05:07;;;;;;;21.20;16.35;;;;;;;8.15;64.36;99863.13;5026685;28;20049;-86
2021/12/05 15:07:34;;;;;;;18.00;16.10;;;;;;;7.98;65.06;99837.38;5026813;28;20088;-85
2021/12/05 15:10:00;;;;;;;18.67;16.63;;;;;;;8.15;65.24;99876.34;5026818;28;20045;-83
2021/12/05 15:12:31;;;;;;;18.08;15.80;;;;;;;8.13;64.19;99881.78;5008851;28;20143;-84
2021/12/05 15:15:10;;;;;;;17.92;15.43;;;;;;;8.04;64.38;99876.50;5025372;28;20045;-86
2021/12/05 15:17:39;;;;;;;18.88;16.40;;;;;;;8.14;64.78;99887.91;5008108;28;20045;-83
2021/12/05 15:20:13;;;;;;;17.73;15.95;;;;;;;8.13;65.42;99892.38;5007937;28;20128;-84
2021/12/05 15:22:44;;;;;;;19.27;16.60;;;;;;;7.86;66.22;99869.25;5008828;28;20084;-83
2021/12/05 15:25:18;;;;;;;17.70;15.95;;;;;;;8.09;65.99;99903.34;5009076;28;20056;-86
2021/12/05 15:27:47;;;;;;;20.05;16.02;;;;;;;7.73;64.90;99836.94;5009303;28;20150;-86
2021/12/05 15:30:22;;;;;;;19.55;15.07;;;;;;;8.00;64.73;99891.78;5008926;28;20045;-85
2021/12/05 15:32:56;;;;;;;18.38;16.45;;;;;;;8.04;63.86;99905.56;5026441;28;20490;-84
2021/12/05 15:35:24;;;;;;;19.33;17.10;;;;;;;8.09;65.26;99911.28;5011773;28;20061;-84
2021/12/05 15:38:09;;;;;;;22.52;16.42;;;;;;;7.58;65.88;99843.59;5015387;28;20052;-84
2021/12/05 15:40:44;;;;;;;17.88;16.02;;;;;;;7.84;66.07;99872.97;5033409;28;20415;-84
2021/12/05 15:43:15;;;;;;;20.08;18.00;;;;;;;7.87;65.64;99884.13;5015170;28;20141;-85
2021/12/05 15:45:43;;;;;;;19.02;17.05;;;;;;;7.92;64.83;99900.41;5015124;28;20303;-85
2021/12/05 15:48:10;;;;;;;18.63;16.88;;;;;;;7.67;66.02;99862.13;5014838;28;20056;-82
2021/12/05 15:50:39;;;;;;;20.27;17.50;;;;;;;7.89;66.50;99902.50;5014996;28;20546;-83
2021/12/05 15:53:12;;;;;;;20.42;17.60;;;;;;;7.43;67.46;99838.69;5015147;28;20053;-82
2021/12/05 15:55:42;;;;;;;19.00;17.20;;;;;;;7.63;68.82;99888.94;5013785;28;20375;-82
2021/12/05 15:58:30;;;;;;;19.63;16.73;;;;;;;7.66;69.71;99915.06;5013827;28;20156;-82
2021/12/05 16:01:06;;;;;;;26.73;17.60;;;;;;;7.63;69.21;99924.09;5031267;28;20057;-82
2021/12/05 16:03:44;;;;;;;21.25;17.90;;;;;;;7.34;68.84;99887.03;5029905;28;20049;-82
2021/12/05 16:06:16;;;;;;;21.15;17.25;;;;;;;7.35;69.57;99887.84;5030933;28;20121;-84
2021/12/05 16:08:45;;;;;;;20.45;18.30;;;;;;;7.62;70.21;99925.09;5016538;28;20049;-82
2021/12/05 16:11:21;;;;;;;22.17;19.58;;;;;;;7.36;70.10;99898.28;5013597;28;20049;-82
2021/12/05 16:13:52;;;;;;;20.60;18.50;;;;;;;7.48;69.59;99913.06;5014813;28;20149;-84
2021/12/05 16:16:26;;;;;;;20.77;18.77;;;;;;;7.02;70.56;99853.69;4995066;28;20492;-82
2021/12/05 16:18:56;;;;;;;20.35;18.10;;;;;;;7.48;70.97;99922.81;5012754;28;20451;-82
2021/12/05 16:21:27;;;;;;;19.95;17.90;;;;;;;7.42;72.00;99929.44;4994955;28;20476;-83
2021/12/05 16:24:03;;;;;;;20.27;18.17;;;;;;;7.02;71.75;99872.16;5012646;28;20056;-83
2021/12/05 16:26:30;;;;;;;20.15;18.17;;;;;;;7.41;72.29;99943.63;5004556;28;20492;-84
2021/12/05 16:29:06;;;;;;;20.33;18.30;;;;;;;7.37;71.89;99946.66;5026581;28;20127;-83
2021/12/05 16:31:42;;;;;;;20.15;18.08;;;;;;;7.16;72.09;99922.91;5031884;28;20055;-83
2021/12/05 16:34:17;;;;;;;20.25;18.25;;;;;;;7.31;71.51;99947.19;5032186;28;20087;-83
2021/12/05 16:36:47;;;;;;;21.55;19.23;;;;;;;6.48;70.84;99817.00;5032187;28;20057;-84
2021/12/05 16:39:15;;;;;;;21.00;18.80;;;;;;;7.31;70.35;99958.59;5013996;28;20064;-83
2021/12/05 16:41:54;;;;;;;23.08;19.50;;;;;;;6.83;70.46;99878.16;5014622;28;20053;-83
2021/12/05 16:44:26;;;;;;;24.80;19.13;;;;;;;6.70;70.13;99860.84;5014641;28;20111;-81
2021/12/05 16:47:01;;;;;;;21.15;18.92;;;;;;;7.03;69.74;99925.78;5010853;28;20494;-82
2021/12/05 16:49:33;;;;;;;23.02;20.20;;;;;;;6.39;69.22;99823.91;5010917;28;20148;-84
2021/12/05 16:52:20;;;;;;;20.70;18.67;;;;;;;7.22;68.27;99954.91;5011275;28;20136;-84
2021/12/05 16:55:02;;;;;;;21.67;19.38;;;;;;;7.09;68.55;99933.19;5011202;28;20049;-84
2021/12/05 16:57:40;;;;;;;21.55;19.42;;;;;;;7.35;69.55;99973.19;5011490;28;20323;-82
2021/12/05 17:03:07;;;;;;;23.10;20.73;;;;;;;7.35;69.99;99972.34;5311065;22;20081;-81
2021/12/05 17:05:44;;;;;;;22.35;19.95;;;;;;;7.30;69.51;99978.03;4970577;28;20046;-80
2021/12/05 17:08:15;;;;;;;24.17;19.15;;;;;;;7.23;70.36;99961.03;4972446;28;20140;-82
2021/12/05 17:10:55;;;;;;;23.30;19.80;;;;;;;7.03;70.67;99946.88;4972347;28;20133;-82
2021/12/05 17:13:39;;;;;;;21.52;19.30;;;;;;;6.89;70.87;99936.66;4972025;28;20060;-82